createdAt,value
2019-03-05T00:01:24.195Z,65.40
2019-03-05T00:03:56.156Z,65.63
2019-03-05T00:06:27.796Z,65.63
2019-03-05T00:08:59.526Z,65.39
2019-03-05T00:11:31.528Z,65.56
2019-03-05T00:14:02.876Z,65.07
2019-03-05T00:16:34.544Z,64.92
2019-03-05T00:19:06.085Z,65.01
2019-03-05T00:21:37.675Z,64.71
2019-03-05T00:24:44.173Z,64.79
2019-03-05T00:27:15.856Z,64.62
2019-03-05T00:30:20.897Z,64.36
2019-03-05T00:33:03.652Z,64.30
2019-03-05T00:36:17.660Z,64.07
2019-03-05T00:39:31.994Z,63.80
2019-03-05T00:42:40.327Z,63.98
2019-03-05T00:45:47.445Z,64.05
2019-03-05T00:49:14.658Z,63.98
2019-03-05T00:52:26.152Z,64.14
2019-03-05T00:55:29.949Z,64.04
2019-03-05T00:58:22.007Z,64.02
2019-03-05T01:01:27.278Z,63.92
2019-03-05T01:04:39.245Z,63.26
2019-03-05T01:07:10.922Z,63.81
2019-03-05T01:09:42.452Z,63.80
2019-03-05T01:12:14.926Z,63.00
2019-03-05T01:14:47.084Z,63.26
2019-03-05T01:17:18.659Z,63.34
2019-03-05T01:19:50.218Z,63.22
2019-03-05T01:22:21.843Z,63.02
2019-03-05T01:24:53.445Z,63.25
2019-03-05T01:27:25.040Z,63.45
2019-03-05T01:29:56.621Z,62.89
2019-03-05T01:32:42.278Z,62.90
2019-03-05T01:35:21.573Z,63.24
2019-03-05T01:37:53.193Z,62.85
2019-03-05T01:40:29.116Z,62.97
2019-03-05T01:43:00.743Z,63.45
2019-03-05T01:45:32.360Z,62.80
2019-03-05T01:48:03.728Z,62.55
2019-03-05T01:50:35.296Z,62.20
2019-03-05T01:53:07.227Z,62.62
2019-03-05T01:55:38.818Z,62.48
2019-03-05T01:58:10.424Z,62.70
2019-03-05T02:00:42.193Z,62.85
2019-03-05T02:03:14.117Z,63.14
2019-03-05T02:05:45.950Z,63.06
2019-03-05T02:08:18.313Z,63.25
2019-03-05T02:10:50.142Z,63.34
2019-03-05T02:13:22.131Z,63.03
2019-03-05T02:15:53.501Z,63.05
2019-03-05T02:18:27.524Z,63.07
2019-03-05T02:21:00.138Z,63.04
2019-03-05T02:24:02.038Z,63.12
2019-03-05T02:27:10.065Z,63.42
2019-03-05T02:30:17.328Z,63.18
2019-03-05T02:33:32.084Z,63.36
2019-03-05T02:36:15.688Z,63.43
2019-03-05T02:39:19.816Z,63.26
2019-03-05T02:41:58.483Z,63.55
2019-03-05T02:45:07.403Z,62.96
2019-03-05T02:48:12.210Z,63.19
2019-03-05T02:51:15.121Z,63.35
2019-03-05T02:54:30.081Z,62.75
2019-03-05T02:57:08.918Z,62.50
2019-03-05T02:59:41.015Z,62.45
2019-03-05T03:02:30.173Z,62.62
2019-03-05T03:05:09.466Z,62.22
2019-03-05T03:07:41.254Z,62.63
2019-03-05T03:10:24.065Z,62.32
2019-03-05T03:12:55.830Z,62.44
2019-03-05T03:15:27.347Z,62.31
2019-03-05T03:17:59.097Z,62.37
2019-03-05T03:20:30.718Z,62.19
2019-03-05T03:23:02.357Z,62.25
2019-03-05T03:25:34.091Z,62.19
2019-03-05T03:28:06.648Z,62.48
2019-03-05T03:30:38.269Z,62.52
2019-03-05T03:33:09.840Z,62.24
2019-03-05T03:35:41.419Z,62.80
2019-03-05T03:38:13.065Z,62.99
2019-03-05T03:40:44.540Z,63.14
2019-03-05T03:43:16.283Z,62.70
2019-03-05T03:45:47.976Z,62.47
2019-03-05T03:48:19.589Z,62.51
2019-03-05T03:50:51.319Z,62.43
2019-03-05T03:53:23.152Z,62.40
2019-03-05T03:55:54.654Z,62.34
2019-03-05T03:58:26.619Z,62.10
2019-03-05T04:00:59.109Z,61.73
2019-03-05T04:03:30.843Z,62.07
2019-03-05T04:06:02.710Z,61.50
2019-03-05T04:08:34.390Z,61.77
2019-03-05T04:11:06.044Z,61.51
2019-03-05T04:13:38.205Z,61.96
2019-03-05T04:16:09.941Z,61.54
2019-03-05T04:18:41.553Z,61.59
2019-03-05T04:21:13.123Z,61.30
2019-03-05T04:23:44.679Z,61.26
2019-03-05T04:26:16.121Z,60.86
2019-03-05T04:28:47.407Z,61.01
2019-03-05T04:31:19.111Z,61.18
2019-03-05T04:33:50.723Z,61.36
2019-03-05T04:36:21.993Z,61.62
2019-03-05T04:38:53.660Z,61.63
2019-03-05T04:41:25.259Z,61.72
2019-03-05T04:43:57.017Z,61.83
2019-03-05T04:46:33.238Z,62.37
2019-03-05T04:49:09.577Z,62.05
2019-03-05T04:51:42.593Z,62.42
2019-03-05T04:54:14.934Z,62.34
2019-03-05T04:56:46.430Z,62.77
2019-03-05T04:59:18.325Z,62.71
2019-03-05T05:01:50.002Z,62.59
2019-03-05T05:04:21.293Z,62.88
2019-03-05T05:06:54.390Z,62.71
2019-03-05T05:09:26.263Z,62.96
2019-03-05T05:11:58.231Z,62.53
2019-03-05T05:14:29.763Z,63.03
2019-03-05T05:17:01.272Z,63.14
2019-03-05T05:19:32.993Z,62.56
2019-03-05T05:22:04.498Z,62.90
2019-03-05T05:24:36.047Z,62.81
2019-03-05T05:27:07.321Z,62.81
2019-03-05T05:29:38.930Z,63.16
2019-03-05T05:32:10.502Z,63.18
2019-03-05T05:34:42.332Z,62.81
2019-03-05T05:37:13.914Z,63.25
2019-03-05T05:40:21.234Z,63.42
2019-03-05T05:42:52.906Z,62.80
2019-03-05T05:45:25.810Z,63.37
2019-03-05T05:47:57.353Z,63.24
2019-03-05T05:50:28.962Z,62.89
2019-03-05T05:53:01.942Z,63.11
2019-03-05T05:55:33.635Z,63.23
2019-03-05T05:58:05.203Z,63.04
2019-03-05T06:00:38.617Z,63.16
2019-03-05T06:03:10.280Z,63.19
2019-03-05T06:05:41.705Z,63.06
2019-03-05T06:08:14.585Z,62.50
2019-03-05T06:10:46.442Z,62.60
2019-03-05T06:13:17.931Z,62.31
2019-03-05T06:15:49.454Z,61.69
2019-03-05T06:18:21.121Z,62.14
2019-03-05T06:20:52.805Z,61.75
2019-03-05T06:23:24.471Z,61.63
2019-03-05T06:25:55.851Z,61.57
2019-03-05T06:28:27.740Z,61.75
2019-03-05T06:30:59.204Z,61.42
2019-03-05T06:33:30.451Z,61.63
2019-03-05T06:36:02.416Z,60.88
2019-03-05T06:38:34.369Z,61.05
2019-03-05T06:41:07.660Z,60.42
2019-03-05T06:43:39.138Z,59.90
2019-03-05T06:46:11.677Z,57.78
2019-03-05T06:48:43.173Z,54.30
2019-03-05T06:51:14.789Z,51.75
2019-03-05T06:53:46.509Z,54.88
2019-03-05T06:56:17.840Z,55.02
2019-03-05T06:58:49.511Z,52.41
2019-03-05T07:01:21.486Z,50.96
2019-03-05T07:03:52.858Z,54.52
2019-03-05T07:06:49.334Z,53.75
2019-03-05T07:09:33.580Z,51.64
2019-03-05T07:12:47.135Z,49.97
2019-03-05T07:15:37.996Z,50.73
2019-03-05T07:18:16.815Z,53.08
2019-03-05T07:21:20.466Z,54.04
2019-03-05T07:24:13.734Z,55.04
2019-03-05T07:26:45.286Z,54.50
2019-03-05T07:29:18.079Z,55.50
2019-03-05T07:31:49.835Z,55.61
2019-03-05T07:34:22.970Z,55.10
2019-03-05T07:36:54.452Z,55.12
2019-03-05T07:39:26.056Z,54.19
2019-03-05T07:41:57.434Z,53.93
2019-03-05T07:44:29.007Z,55.08
2019-03-05T07:47:00.584Z,54.22
2019-03-05T07:49:42.934Z,54.59
2019-03-05T07:52:05.723Z,50.66
2019-03-05T07:54:37.173Z,47.76
2019-03-05T07:57:08.879Z,47.87
2019-03-05T07:59:40.341Z,46.48
2019-03-05T08:02:11.759Z,45.71
2019-03-05T08:04:43.174Z,47.90
2019-03-05T08:07:15.074Z,49.71
2019-03-05T08:09:46.709Z,53.58
2019-03-05T08:12:46.304Z,53.59
2019-03-05T08:16:02.090Z,54.16
2019-03-05T08:18:24.676Z,55.64
2019-03-05T08:20:56.185Z,56.02
2019-03-05T08:23:27.961Z,55.89
2019-03-05T08:26:00.222Z,56.65
2019-03-05T08:28:31.978Z,57.52
2019-03-05T08:31:03.779Z,57.07
2019-03-05T08:33:35.519Z,57.29
2019-03-05T08:36:08.297Z,57.60
2019-03-05T08:38:39.996Z,57.88
2019-03-05T08:41:32.339Z,57.84
2019-03-05T08:44:21.464Z,58.07
2019-03-05T08:46:52.856Z,57.95
2019-03-05T08:49:24.477Z,57.94
2019-03-05T08:51:56.022Z,58.36
2019-03-05T08:54:27.593Z,58.76
2019-03-05T08:57:00.320Z,58.99
2019-03-05T08:59:32.763Z,58.78
2019-03-05T09:02:04.420Z,59.68
2019-03-05T09:04:36.114Z,59.79
2019-03-05T09:07:07.863Z,59.48
2019-03-05T09:09:39.500Z,59.06
2019-03-05T09:12:11.857Z,57.84
2019-03-05T09:14:43.788Z,58.07
2019-03-05T09:17:16.094Z,58.12
2019-03-05T09:19:47.689Z,57.98
2019-03-05T09:22:19.368Z,58.11
2019-03-05T09:24:50.939Z,58.48
2019-03-05T09:27:22.825Z,58.64
2019-03-05T09:29:54.356Z,57.78
2019-03-05T09:32:26.309Z,57.91
2019-03-05T09:34:57.763Z,58.32
2019-03-05T09:37:29.505Z,58.55
2019-03-05T09:40:01.319Z,58.46
2019-03-05T09:42:39.742Z,58.40
2019-03-05T09:45:07.634Z,58.45
2019-03-05T09:47:39.360Z,58.76
2019-03-05T09:50:12.698Z,58.55
2019-03-05T09:52:54.461Z,58.31
2019-03-05T09:55:19.444Z,57.96
2019-03-05T09:58:06.845Z,57.63
2019-03-05T10:00:29.237Z,57.66
2019-03-05T10:03:01.192Z,58.87
2019-03-05T10:05:33.103Z,59.27
2019-03-05T10:08:04.873Z,59.15
2019-03-05T10:10:37.083Z,57.50
2019-03-05T10:13:09.128Z,57.86
2019-03-05T10:15:41.668Z,57.39
2019-03-05T10:18:13.369Z,56.27
2019-03-05T10:20:45.789Z,56.00
2019-03-05T10:23:17.268Z,56.30
2019-03-05T10:25:48.829Z,56.44
2019-03-05T10:28:20.474Z,56.82
2019-03-05T10:30:52.098Z,57.76
2019-03-05T10:33:23.824Z,57.56
2019-03-05T10:35:55.975Z,57.41
2019-03-05T10:38:27.629Z,57.85
2019-03-05T10:40:59.684Z,57.14
2019-03-05T10:43:31.583Z,56.80
2019-03-05T10:46:03.153Z,57.55
2019-03-05T10:48:34.940Z,56.80
2019-03-05T10:51:06.750Z,56.75
2019-03-05T10:53:38.729Z,57.14
2019-03-05T10:56:10.443Z,57.14
2019-03-05T10:58:42.236Z,57.04
2019-03-05T11:01:14.616Z,57.71
2019-03-05T11:03:46.511Z,58.15
2019-03-05T11:06:18.211Z,59.39
2019-03-05T11:08:51.155Z,59.76
2019-03-05T11:11:23.744Z,59.65
2019-03-05T11:13:55.373Z,61.66
2019-03-05T11:16:31.101Z,61.18
2019-03-05T11:19:00.964Z,60.22
2019-03-05T11:21:32.900Z,60.16
2019-03-05T11:24:04.800Z,59.84
2019-03-05T11:26:36.692Z,58.33
2019-03-05T11:29:08.492Z,57.76
2019-03-05T11:31:40.600Z,55.65
2019-03-05T11:34:13.340Z,53.81
2019-03-05T11:36:45.259Z,53.09
2019-03-05T11:39:17.535Z,51.79
2019-03-05T11:41:49.028Z,51.70
2019-03-05T11:44:20.591Z,51.58
2019-03-05T11:46:52.194Z,50.87
2019-03-05T11:49:24.002Z,51.10
2019-03-05T11:51:55.696Z,51.62
2019-03-05T11:54:27.498Z,51.39
2019-03-05T11:57:01.450Z,52.54
2019-03-05T11:59:32.269Z,53.35
2019-03-05T12:02:05.727Z,54.92
2019-03-05T12:04:37.192Z,54.82
2019-03-05T12:07:08.800Z,55.36
2019-03-05T12:09:40.314Z,56.37
2019-03-05T12:12:11.781Z,56.11
2019-03-05T12:14:43.426Z,56.13
2019-03-05T12:17:14.866Z,55.46
2019-03-05T12:19:46.447Z,54.97
2019-03-05T12:22:18.365Z,53.79
2019-03-05T12:24:49.710Z,52.80
2019-03-05T12:27:21.763Z,53.72
2019-03-05T12:29:53.564Z,53.70
2019-03-05T12:32:25.178Z,53.43
2019-03-05T12:34:57.084Z,53.78
2019-03-05T12:37:29.227Z,53.77
2019-03-05T12:40:00.859Z,53.55
2019-03-05T12:42:32.578Z,52.68
2019-03-05T12:45:04.155Z,50.41
2019-03-05T12:47:35.979Z,46.18
2019-03-05T12:50:09.695Z,47.21
2019-03-05T12:52:41.306Z,46.36
2019-03-05T12:55:13.295Z,44.38
2019-03-05T12:57:45.187Z,46.07
2019-03-05T13:00:20.593Z,42.73
2019-03-05T13:02:52.726Z,44.09
2019-03-05T13:05:24.346Z,44.58
2019-03-05T13:07:56.383Z,44.11
2019-03-05T13:10:34.814Z,43.38
2019-03-05T13:13:01.861Z,42.15
2019-03-05T13:15:33.522Z,43.37
2019-03-05T13:18:04.986Z,44.79
2019-03-05T13:20:36.477Z,45.61
2019-03-05T13:23:09.630Z,47.84
2019-03-05T13:25:41.391Z,48.19
2019-03-05T13:28:13.102Z,48.97
2019-03-05T13:30:44.623Z,48.83
2019-03-05T13:33:16.290Z,48.89
2019-03-05T13:35:47.876Z,48.13
2019-03-05T13:38:19.541Z,47.39
2019-03-05T13:40:51.004Z,48.28
2019-03-05T13:43:22.619Z,47.97
2019-03-05T13:45:54.183Z,48.10
2019-03-05T13:49:18.025Z,48.13
2019-03-05T13:52:22.490Z,48.52
2019-03-05T13:55:26.874Z,49.57
2019-03-05T13:58:24.239Z,50.71
2019-03-05T14:00:56.086Z,50.88
2019-03-05T14:03:55.173Z,50.24
2019-03-05T14:07:08.704Z,50.41
2019-03-05T14:09:38.321Z,50.76
2019-03-05T14:12:09.922Z,51.20
2019-03-05T14:14:41.548Z,50.79
2019-03-05T14:17:15.049Z,50.54
2019-03-05T14:19:46.702Z,51.46
2019-03-05T14:22:19.045Z,50.13
2019-03-05T14:25:01.623Z,47.39
2019-03-05T14:27:24.186Z,44.93
2019-03-05T14:29:55.844Z,43.79
2019-03-05T14:32:27.203Z,45.93
2019-03-05T14:35:03.246Z,48.44
2019-03-05T14:37:34.969Z,50.01
2019-03-05T14:40:23.405Z,50.66
2019-03-05T14:42:42.599Z,50.86
2019-03-05T14:45:20.778Z,50.97
2019-03-05T14:47:54.601Z,51.71
2019-03-05T14:50:26.365Z,51.30
2019-03-05T14:52:57.971Z,51.86
2019-03-05T14:55:29.746Z,52.04
2019-03-05T14:58:01.300Z,52.40
2019-03-05T15:00:34.112Z,52.64
2019-03-05T15:03:05.893Z,52.76
2019-03-05T15:05:37.669Z,52.75
2019-03-05T15:08:09.332Z,52.94
2019-03-05T15:10:40.831Z,52.52
2019-03-05T15:13:17.378Z,52.93
2019-03-05T15:15:45.732Z,53.19
2019-03-05T15:18:17.512Z,52.44
2019-03-05T15:20:49.222Z,52.37
2019-03-05T15:23:21.063Z,51.86
2019-03-05T15:25:52.567Z,52.86
2019-03-05T15:28:24.319Z,53.03
2019-03-05T15:30:56.255Z,52.44
2019-03-05T15:33:27.690Z,53.13
2019-03-05T15:35:59.243Z,53.81
2019-03-05T15:38:31.175Z,53.89
2019-03-05T15:41:02.710Z,54.09
2019-03-05T15:43:34.237Z,54.05
2019-03-05T15:46:06.322Z,53.73
2019-03-05T15:48:38.094Z,53.99
2019-03-05T15:51:09.989Z,53.68
2019-03-05T15:53:41.562Z,53.56
2019-03-05T15:56:13.292Z,54.03
2019-03-05T15:58:44.820Z,53.73
2019-03-05T16:01:22.168Z,53.82
2019-03-05T16:03:50.269Z,53.80
2019-03-05T16:06:21.828Z,53.43
2019-03-05T16:08:53.421Z,53.50
2019-03-05T16:11:24.873Z,53.37
2019-03-05T16:13:56.935Z,53.37
2019-03-05T16:16:29.581Z,53.29
2019-03-05T16:19:04.074Z,53.09
2019-03-05T16:21:37.119Z,52.95
2019-03-05T16:24:09.025Z,52.15
2019-03-05T16:26:40.888Z,51.89
2019-03-05T16:29:16.300Z,51.58
2019-03-05T16:31:49.824Z,51.45
2019-03-05T16:34:22.572Z,51.15
2019-03-05T16:37:10.856Z,51.95
2019-03-05T16:39:56.130Z,51.37
2019-03-05T16:42:32.291Z,51.75
2019-03-05T16:45:07.425Z,51.48
2019-03-05T16:47:43.686Z,51.79
2019-03-05T16:50:17.177Z,51.99
2019-03-05T16:52:53.364Z,51.92
2019-03-05T16:55:27.013Z,52.20
2019-03-05T16:58:16.773Z,52.48
2019-03-05T17:00:56.001Z,52.70
2019-03-05T17:03:32.158Z,52.48
2019-03-05T17:06:22.866Z,52.29
2019-03-05T17:09:05.724Z,51.94
2019-03-05T17:11:55.377Z,52.37
2019-03-05T17:14:27.623Z,52.81
2019-03-05T17:16:59.144Z,52.73
2019-03-05T17:19:32.470Z,52.51
2019-03-05T17:22:05.308Z,52.84
2019-03-05T17:24:37.121Z,52.48
2019-03-05T17:27:08.754Z,52.57
2019-03-05T17:29:41.871Z,52.49
2019-03-05T17:32:13.903Z,52.95
2019-03-05T17:34:46.030Z,52.76
2019-03-05T17:37:17.750Z,52.89
2019-03-05T17:39:49.530Z,52.90
2019-03-05T17:42:21.463Z,52.92
2019-03-05T17:44:54.317Z,53.27
2019-03-05T17:47:25.970Z,52.99
2019-03-05T17:49:57.714Z,52.79
2019-03-05T17:52:29.455Z,53.21
2019-03-05T17:55:01.336Z,53.23
2019-03-05T17:57:33.090Z,53.11
2019-03-05T18:00:05.143Z,53.17
2019-03-05T18:02:36.963Z,53.44
2019-03-05T18:05:09.401Z,53.82
2019-03-05T18:07:41.097Z,53.54
2019-03-05T18:10:13.352Z,53.59
2019-03-05T18:12:45.172Z,53.98
2019-03-05T18:15:17.253Z,54.18
2019-03-05T18:17:48.890Z,54.09
2019-03-05T18:20:21.043Z,54.31
2019-03-05T18:22:53.231Z,54.41
2019-03-05T18:25:24.588Z,54.49
2019-03-05T18:27:57.250Z,55.08
2019-03-05T18:30:28.843Z,55.22
2019-03-05T18:33:00.923Z,55.47
2019-03-05T18:35:32.943Z,55.47
2019-03-05T18:38:07.971Z,55.95
2019-03-05T18:40:39.483Z,56.05
2019-03-05T18:43:11.247Z,55.77
2019-03-05T18:45:42.935Z,55.96
2019-03-05T18:48:14.972Z,55.86
2019-03-05T18:50:47.049Z,56.01
2019-03-05T18:53:19.194Z,56.21
2019-03-05T18:55:50.900Z,56.18
2019-03-05T18:58:23.181Z,56.11
2019-03-05T19:00:54.932Z,55.86
2019-03-05T19:03:26.790Z,56.30
2019-03-05T19:05:58.562Z,55.92
2019-03-05T19:08:30.887Z,56.49
2019-03-05T19:11:02.552Z,56.52
2019-03-05T19:13:35.134Z,57.07
2019-03-05T19:16:07.195Z,56.88
2019-03-05T19:18:38.856Z,56.73
2019-03-05T19:21:11.290Z,57.06
2019-03-05T19:23:43.215Z,56.92
2019-03-05T19:26:15.550Z,56.86
2019-03-05T19:28:47.257Z,57.75
2019-03-05T19:31:33.081Z,58.61
2019-03-05T19:34:04.904Z,59.29
2019-03-05T19:36:36.492Z,60.07
2019-03-05T19:39:08.649Z,60.50
2019-03-05T19:41:41.898Z,60.74
2019-03-05T19:44:13.661Z,61.07
2019-03-05T19:46:45.566Z,61.22
2019-03-05T19:49:17.250Z,61.49
2019-03-05T19:51:48.941Z,61.51
2019-03-05T19:54:21.380Z,61.83
2019-03-05T19:56:53.202Z,61.67
2019-03-05T19:59:24.812Z,61.64
2019-03-05T20:01:56.237Z,61.71
2019-03-05T20:04:27.872Z,61.57
2019-03-05T20:06:59.674Z,61.29
2019-03-05T20:09:31.796Z,61.43
2019-03-05T20:12:03.529Z,60.69
2019-03-05T20:14:35.322Z,60.56
2019-03-05T20:17:07.039Z,60.74
2019-03-05T20:19:38.762Z,60.31
2019-03-05T20:22:10.588Z,59.81
2019-03-05T20:24:42.323Z,59.89
2019-03-05T20:27:16.299Z,60.02
2019-03-05T20:29:47.388Z,59.99
2019-03-05T20:32:19.257Z,59.67
2019-03-05T20:34:51.070Z,59.78
2019-03-05T20:37:22.930Z,59.76
2019-03-05T20:39:55.167Z,60.16
2019-03-05T20:42:26.848Z,60.37
2019-03-05T20:44:59.109Z,60.25
2019-03-05T20:47:30.740Z,60.41
2019-03-05T20:50:02.546Z,60.74
2019-03-05T20:52:35.922Z,60.23
2019-03-05T20:55:10.335Z,60.50
2019-03-05T20:57:42.328Z,60.73
2019-03-05T21:00:33.155Z,60.92
2019-03-05T21:03:05.564Z,60.92
2019-03-05T21:05:41.601Z,61.20
2019-03-05T21:08:13.662Z,61.33
2019-03-05T21:10:45.638Z,61.71
2019-03-05T21:13:17.544Z,61.91
2019-03-05T21:15:49.421Z,62.29
2019-03-05T21:18:21.585Z,62.54
2019-03-05T21:20:53.495Z,63.26
2019-03-05T21:23:25.312Z,63.84
2019-03-05T21:25:56.976Z,64.28
2019-03-05T21:28:28.671Z,64.67
2019-03-05T21:31:00.318Z,65.28
2019-03-05T21:33:32.689Z,64.90
2019-03-05T21:36:04.442Z,65.77
2019-03-05T21:38:35.994Z,66.65
2019-03-05T21:41:07.554Z,67.64
2019-03-05T21:43:39.568Z,68.64
2019-03-05T21:46:14.917Z,69.88
2019-03-05T21:48:46.717Z,70.51
2019-03-05T21:51:18.307Z,71.57
2019-03-05T21:53:49.959Z,71.96
2019-03-05T21:56:21.997Z,72.17
2019-03-05T21:58:53.506Z,72.72
2019-03-05T22:01:25.283Z,72.87
2019-03-05T22:03:57.107Z,72.57
2019-03-05T22:06:29.367Z,72.87
2019-03-05T22:09:01.294Z,72.90
2019-03-05T22:11:36.393Z,72.98
2019-03-05T22:14:09.204Z,73.09
2019-03-05T22:16:41.221Z,73.63
2019-03-05T22:19:12.991Z,73.77
2019-03-05T22:21:44.821Z,73.80
2019-03-05T22:24:16.492Z,74.14
2019-03-05T22:26:47.995Z,74.24
2019-03-05T22:29:19.640Z,74.77
2019-03-05T22:31:51.642Z,74.94
2019-03-05T22:34:23.744Z,75.12
2019-03-05T22:36:55.714Z,74.96
2019-03-05T22:39:27.698Z,74.79
2019-03-05T22:41:59.524Z,75.11
2019-03-05T22:44:31.412Z,75.73
2019-03-05T22:47:03.180Z,76.09
2019-03-05T22:49:35.143Z,76.52
2019-03-05T22:52:07.292Z,76.84
2019-03-05T22:54:39.052Z,76.82
2019-03-05T22:57:10.542Z,77.29
2019-03-05T22:59:42.196Z,78.03
2019-03-05T23:02:13.824Z,78.32
2019-03-05T23:04:46.554Z,79.12
2019-03-05T23:07:18.079Z,79.08
2019-03-05T23:09:49.868Z,79.31
2019-03-05T23:12:21.410Z,79.56
2019-03-05T23:14:55.918Z,79.29
2019-03-05T23:17:27.763Z,79.36
2019-03-05T23:20:00.056Z,79.76
2019-03-05T23:22:31.641Z,80.12
2019-03-05T23:25:03.753Z,80.30
2019-03-05T23:27:36.860Z,80.62
2019-03-05T23:30:10.747Z,81.12
2019-03-05T23:32:43.131Z,81.30
2019-03-05T23:35:16.359Z,81.21
2019-03-05T23:37:48.048Z,81.21
2019-03-05T23:40:20.155Z,81.21
2019-03-05T23:42:51.893Z,81.06
2019-03-05T23:45:23.436Z,81.04
2019-03-05T23:47:55.166Z,81.10
2019-03-05T23:50:27.027Z,81.38
2019-03-05T23:52:58.962Z,81.22
2019-03-05T23:55:31.035Z,81.42
2019-03-05T23:58:02.850Z,81.36
